Time;durP1;ratioP1;P1;durP2;ratioP2;P2;SDS_P1;SDS_P2;PMS_P1;PMS_P2;Temp;Humidity;BMP_temperature;BMP_pressure;BME280_temperature;BME280_humidity;BME280_pressure;Samples;Min_cycle;Max_cycle;Signal;HPM_P1;HPM_P2
2022/02/01 00:03:35;;;;;;;13.32;7.05;;;;;;;;;;4980908;28;20069;-78
2022/02/01 00:11:16;;;;;;;16.80;5.72;;;;;;;;;;4988518;28;20080;-78
2022/02/01 00:14:35;;;;;;;9.48;4.55;;;;;;;;;;4986334;28;20058;-79
2022/02/01 00:35:34;;;;;;;21.08;12.82;;;;;;;;;;4976561;28;20084;-79
2022/02/01 00:38:07;;;;;;;21.42;13.18;;;;;;;;;;4989560;28;20038;-79
2022/02/01 00:40:33;;;;;;;19.40;8.55;;;;;;;;;;4989945;28;20031;-79
2022/02/01 00:42:59;;;;;;;15.88;7.72;;;;;;;;;;4987662;28;20030;-79
2022/02/01 00:45:25;;;;;;;16.45;7.40;;;;;;;;;;4990265;28;20105;-78
2022/02/01 00:47:52;;;;;;;19.88;7.78;;;;;;;;;;4989920;28;20540;-79
2022/02/01 00:50:18;;;;;;;20.48;8.02;;;;;;;;;;4971422;28;20031;-79
2022/02/01 00:52:45;;;;;;;19.65;8.25;;;;;;;;;;4982144;28;20728;-79
2022/02/01 00:55:11;;;;;;;16.27;7.82;;;;;;;;;;4989817;28;20502;-79
2022/02/01 00:57:38;;;;;;;16.75;8.13;;;;;;;;;;4990236;28;20038;-79
2022/02/01 01:00:05;;;;;;;17.75;8.88;;;;;;;;;;4982399;28;20031;-79
2022/02/01 01:02:31;;;;;;;16.63;8.63;;;;;;;;;;4990023;28;20080;-79
2022/02/01 01:04:57;;;;;;;20.80;9.50;;;;;;;;;;4989213;28;20058;-79
2022/02/01 01:07:23;;;;;;;15.55;7.57;;;;;;;;;;4990320;28;20042;-78
2022/02/01 01:09:50;;;;;;;19.20;8.05;;;;;;;;;;4974353;28;20074;-78
2022/02/01 01:12:17;;;;;;;18.10;8.40;;;;;;;;;;4969191;28;20046;-79
2022/02/01 01:45:08;;;;;;;18.17;8.55;;;;;;;;;;4973863;28;20560;-79
2022/02/01 01:55:34;;;;;;;17.20;9.48;;;;;;;;;;4979537;28;20109;-79
2022/02/01 01:58:00;;;;;;;18.90;9.30;;;;;;;;;;4973209;28;20042;-79
2022/02/01 02:00:52;;;;;;;16.17;8.70;;;;;;;;;;4955666;28;20030;-79
2022/02/01 02:03:15;;;;;;;16.83;8.57;;;;;;;;;;4972608;28;20402;-78
2022/02/01 02:05:41;;;;;;;17.15;8.32;;;;;;;;;;4974110;28;20037;-79
2022/02/01 02:08:07;;;;;;;15.38;7.95;;;;;;;;;;4979361;28;20030;-79
2022/02/01 02:10:40;;;;;;;15.80;8.43;;;;;;;;;;4973218;28;20037;-78
2022/02/01 02:18:24;;;;;;;24.88;14.13;;;;;;;;;;4978779;28;20073;-79
2022/02/01 02:20:50;;;;;;;22.73;12.30;;;;;;;;;;4974812;28;20039;-79
2022/02/01 02:23:16;;;;;;;32.35;13.70;;;;;;;;;;4990211;28;20028;-79
2022/02/01 02:25:42;;;;;;;23.83;11.32;;;;;;;;;;4979009;28;20027;-79
2022/02/01 02:28:12;;;;;;;19.52;10.75;;;;;;;;;;4992221;28;20046;-79
2022/02/01 02:30:38;;;;;;;18.73;9.32;;;;;;;;;;4992230;28;20042;-79
2022/02/01 02:33:05;;;;;;;14.55;6.25;;;;;;;;;;4987396;28;20031;-79
2022/02/01 02:35:35;;;;;;;13.90;6.55;;;;;;;;;;4974396;28;20054;-79
2022/02/01 02:38:11;;;;;;;15.25;6.68;;;;;;;;;;4992267;28;20381;-79
2022/02/01 02:46:00;;;;;;;14.55;7.20;;;;;;;;;;4972934;28;20041;-79
2022/02/01 02:48:26;;;;;;;17.88;7.40;;;;;;;;;;4986399;28;20121;-78
2022/02/01 02:50:52;;;;;;;13.45;7.28;;;;;;;;;;4992261;28;20884;-79
2022/02/01 02:53:18;;;;;;;18.80;8.65;;;;;;;;;;4991274;28;20141;-78
2022/02/01 02:55:44;;;;;;;19.52;8.45;;;;;;;;;;4974159;28;20149;-79
2022/02/01 02:58:10;;;;;;;20.88;10.52;;;;;;;;;;4974492;28;20058;-78
2022/02/01 03:00:38;;;;;;;28.80;13.73;;;;;;;;;;4976916;28;20031;-78
2022/02/01 03:03:04;;;;;;;27.65;14.18;;;;;;;;;;4991136;28;20031;-79
2022/02/01 03:05:30;;;;;;;21.13;12.98;;;;;;;;;;4973801;28;20030;-79
2022/02/01 03:07:56;;;;;;;21.48;11.20;;;;;;;;;;4979012;28;20034;-79
2022/02/01 03:10:23;;;;;;;20.10;9.88;;;;;;;;;;4970126;28;20030;-78
2022/02/01 03:20:38;;;;;;;18.08;9.65;;;;;;;;;;4971917;28;20433;-79
2022/02/01 03:23:04;;;;;;;20.35;10.27;;;;;;;;;;4984220;28;20034;-79
2022/02/01 03:25:30;;;;;;;23.15;11.50;;;;;;;;;;4990556;28;20030;-79
2022/02/01 03:27:56;;;;;;;19.10;10.30;;;;;;;;;;4959414;28;20101;-79
2022/02/01 03:30:22;;;;;;;19.35;9.23;;;;;;;;;;4974859;28;20089;-79
2022/02/01 03:32:48;;;;;;;18.67;9.85;;;;;;;;;;4991296;28;20049;-79
2022/02/01 03:35:15;;;;;;;21.45;9.23;;;;;;;;;;4991023;28;20034;-79
2022/02/01 03:37:41;;;;;;;22.77;9.07;;;;;;;;;;4974392;28;20451;-79
2022/02/01 03:40:11;;;;;;;16.83;8.77;;;;;;;;;;4971558;28;20373;-79
2022/02/01 03:42:37;;;;;;;19.67;9.68;;;;;;;;;;4989600;28;20716;-79
2022/02/01 03:45:03;;;;;;;19.38;8.35;;;;;;;;;;4990879;28;20037;-79
2022/02/01 03:47:32;;;;;;;16.80;7.70;;;;;;;;;;4990918;28;20038;-79
2022/02/01 03:49:59;;;;;;;15.07;7.90;;;;;;;;;;4990728;28;20056;-79
2022/02/01 03:52:25;;;;;;;24.92;9.63;;;;;;;;;;4972494;28;20138;-79
2022/02/01 03:54:51;;;;;;;16.38;6.88;;;;;;;;;;4970957;28;20038;-79
2022/02/01 03:57:17;;;;;;;15.15;6.78;;;;;;;;;;4971149;28;20086;-79
2022/02/01 03:59:46;;;;;;;14.02;5.75;;;;;;;;;;4971521;28;20164;-79
2022/02/01 04:02:13;;;;;;;15.15;6.15;;;;;;;;;;4971067;28;20030;-79
2022/02/01 04:04:39;;;;;;;16.88;6.90;;;;;;;;;;4971600;28;20474;-79
2022/02/01 04:07:07;;;;;;;21.30;7.15;;;;;;;;;;4979020;28;20050;-79
2022/02/01 04:09:34;;;;;;;17.58;7.82;;;;;;;;;;4971805;28;20113;-79
2022/02/01 04:12:01;;;;;;;20.90;9.13;;;;;;;;;;4986357;28;20106;-79
2022/02/01 04:14:31;;;;;;;17.33;7.80;;;;;;;;;;4953358;28;20108;-79
2022/02/01 04:16:58;;;;;;;22.67;7.80;;;;;;;;;;4973131;28;20085;-79
2022/02/01 04:19:25;;;;;;;19.80;7.78;;;;;;;;;;4970808;28;20454;-79
2022/02/01 04:22:00;;;;;;;20.65;7.47;;;;;;;;;;4990258;28;20446;-79
2022/02/01 04:24:27;;;;;;;15.30;7.63;;;;;;;;;;4967610;28;20536;-79
2022/02/01 04:26:53;;;;;;;16.65;7.88;;;;;;;;;;4990517;28;20045;-79
2022/02/01 04:29:19;;;;;;;18.85;7.65;;;;;;;;;;4979376;28;20044;-79
2022/02/01 04:31:45;;;;;;;16.05;7.60;;;;;;;;;;4969333;28;20039;-79
2022/02/01 04:34:11;;;;;;;19.10;7.90;;;;;;;;;;4970723;28;20034;-79
2022/02/01 04:36:38;;;;;;;14.43;7.03;;;;;;;;;;4977281;28;20026;-79
2022/02/01 04:39:04;;;;;;;18.15;7.18;;;;;;;;;;4972725;28;20077;-79
2022/02/01 04:41:31;;;;;;;17.73;7.40;;;;;;;;;;4975725;28;20026;-79
2022/02/01 04:44:00;;;;;;;18.80;8.48;;;;;;;;;;4972859;28;20042;-79
2022/02/01 04:46:27;;;;;;;18.60;9.13;;;;;;;;;;4970690;28;20038;-79
2022/02/01 04:48:53;;;;;;;19.77;9.60;;;;;;;;;;4984477;28;20102;-79
2022/02/01 04:51:20;;;;;;;17.27;8.63;;;;;;;;;;4990200;28;20031;-79
2022/02/01 04:53:47;;;;;;;17.13;8.23;;;;;;;;;;4969593;28;20051;-79
2022/02/01 04:56:17;;;;;;;14.98;7.88;;;;;;;;;;4962517;28;20030;-78
2022/02/01 04:58:43;;;;;;;20.08;8.18;;;;;;;;;;4970742;28;20034;-79
2022/02/01 05:01:09;;;;;;;23.27;9.70;;;;;;;;;;4972619;28;20154;-79
2022/02/01 05:03:35;;;;;;;20.15;7.95;;;;;;;;;;4990478;28;20040;-80
2022/02/01 05:06:02;;;;;;;19.25;8.45;;;;;;;;;;4986324;28;20039;-79
2022/02/01 05:08:28;;;;;;;17.73;8.57;;;;;;;;;;4972455;28;20034;-79
2022/02/01 05:10:54;;;;;;;19.42;8.35;;;;;;;;;;4971204;28;20082;-79
2022/02/01 05:18:31;;;;;;;17.95;8.73;;;;;;;;;;4993288;28;20408;-79
2022/02/01 05:21:11;;;;;;;15.70;7.45;;;;;;;;;;4985017;28;20058;-79
2022/02/01 05:23:37;;;;;;;17.23;7.70;;;;;;;;;;4974158;28;20081;-79
2022/02/01 05:26:04;;;;;;;16.90;7.80;;;;;;;;;;4982893;28;20041;-79
2022/02/01 05:28:31;;;;;;;18.30;7.20;;;;;;;;;;4976475;28;20034;-79
2022/02/01 05:31:02;;;;;;;17.17;6.70;;;;;;;;;;4971739;28;20034;-79
2022/02/01 05:33:29;;;;;;;16.40;6.85;;;;;;;;;;4993429;28;20050;-78
2022/02/01 05:35:55;;;;;;;14.48;7.72;;;;;;;;;;4973991;28;20034;-78
2022/02/01 05:38:21;;;;;;;16.35;6.53;;;;;;;;;;4980270;28;20039;-78
2022/02/01 05:40:47;;;;;;;22.50;10.63;;;;;;;;;;4962246;28;20041;-79
2022/02/01 05:43:19;;;;;;;31.88;14.50;;;;;;;;;;4993446;28;20508;-79
2022/02/01 05:45:46;;;;;;;23.67;11.95;;;;;;;;;;4993881;28;20034;-79
2022/02/01 05:48:12;;;;;;;24.10;11.48;;;;;;;;;;4990842;28;20068;-79
2022/02/01 05:50:39;;;;;;;23.48;11.98;;;;;;;;;;4973773;28;20038;-79
2022/02/01 05:53:06;;;;;;;25.27;12.98;;;;;;;;;;4974978;28;20042;-79
2022/02/01 05:55:34;;;;;;;28.75;14.18;;;;;;;;;;4991935;28;20045;-79
2022/02/01 05:58:00;;;;;;;26.17;15.85;;;;;;;;;;4977125;28;20045;-78
2022/02/01 06:00:26;;;;;;;29.85;14.43;;;;;;;;;;4985382;28;20126;-79
2022/02/01 06:02:52;;;;;;;22.40;11.88;;;;;;;;;;4973774;28;20023;-80
2022/02/01 06:05:18;;;;;;;19.35;10.15;;;;;;;;;;4974290;28;20034;-79
2022/02/01 06:07:45;;;;;;;16.42;8.73;;;;;;;;;;4972252;28;20053;-78
2022/02/01 06:10:11;;;;;;;20.35;9.25;;;;;;;;;;4961382;28;20497;-79
2022/02/01 06:12:41;;;;;;;19.50;8.43;;;;;;;;;;4973840;28;20046;-79
2022/02/01 06:15:07;;;;;;;16.80;8.48;;;;;;;;;;4974422;28;20073;-78
2022/02/01 06:17:33;;;;;;;22.63;10.32;;;;;;;;;;4963822;28;20093;-79
2022/02/01 06:19:59;;;;;;;20.52;9.35;;;;;;;;;;4981114;28;20818;-79
2022/02/01 06:22:25;;;;;;;21.35;10.63;;;;;;;;;;4963545;28;20041;-77
2022/02/01 06:24:52;;;;;;;26.92;12.05;;;;;;;;;;4970548;28;20058;-78
2022/02/01 06:27:18;;;;;;;26.83;14.05;;;;;;;;;;4975545;28;20045;-78
2022/02/01 06:29:44;;;;;;;26.33;10.90;;;;;;;;;;4980389;28;20038;-80
2022/02/01 06:32:10;;;;;;;24.88;12.60;;;;;;;;;;4972691;28;20030;-78
2022/02/01 06:34:36;;;;;;;27.08;13.52;;;;;;;;;;4974582;28;20038;-78
2022/02/01 06:37:02;;;;;;;35.92;16.27;;;;;;;;;;4955591;28;20043;-78
2022/02/01 06:39:28;;;;;;;29.95;12.93;;;;;;;;;;4985233;28;20061;-78
2022/02/01 06:41:55;;;;;;;26.00;11.35;;;;;;;;;;4977998;28;20031;-78
2022/02/01 06:44:22;;;;;;;27.08;11.55;;;;;;;;;;4975277;28;20053;-78
2022/02/01 06:46:48;;;;;;;29.52;11.82;;;;;;;;;;4979312;28;20471;-78
2022/02/01 06:49:14;;;;;;;23.45;10.63;;;;;;;;;;4980745;28;20076;-78
2022/02/01 06:51:40;;;;;;;28.70;11.68;;;;;;;;;;4979480;28;20377;-78
2022/02/01 06:54:07;;;;;;;26.38;12.02;;;;;;;;;;4984187;28;20133;-78
2022/02/01 06:56:33;;;;;;;25.70;12.15;;;;;;;;;;4992353;28;20887;-78
2022/02/01 06:59:01;;;;;;;25.85;12.35;;;;;;;;;;4982630;28;20386;-78
2022/02/01 07:01:27;;;;;;;26.25;11.65;;;;;;;;;;4991801;28;20453;-78
2022/02/01 07:03:53;;;;;;;28.25;12.98;;;;;;;;;;4982866;28;20049;-78
2022/02/01 07:06:20;;;;;;;33.83;12.80;;;;;;;;;;4980203;28;20062;-78
2022/02/01 07:08:47;;;;;;;28.65;13.57;;;;;;;;;;4985249;28;20089;-78
2022/02/01 07:11:13;;;;;;;35.80;14.40;;;;;;;;;;4990740;28;20522;-78
2022/02/01 07:13:39;;;;;;;32.95;15.32;;;;;;;;;;4987232;28;20039;-78
2022/02/01 07:16:06;;;;;;;29.52;15.07;;;;;;;;;;4977020;28;20053;-78
2022/02/01 07:18:32;;;;;;;55.58;23.65;;;;;;;;;;4989212;28;20026;-79
2022/02/01 07:20:58;;;;;;;63.60;25.30;;;;;;;;;;4971931;28;20042;-78
2022/02/01 07:23:26;;;;;;;89.72;33.55;;;;;;;;;;4989254;28;20026;-78
2022/02/01 07:25:53;;;;;;;62.42;24.70;;;;;;;;;;4984173;28;20130;-78
2022/02/01 07:28:22;;;;;;;36.65;17.15;;;;;;;;;;4980450;28;20078;-78
2022/02/01 07:30:49;;;;;;;34.58;14.95;;;;;;;;;;4982233;28;20050;-78
2022/02/01 07:33:15;;;;;;;34.38;15.02;;;;;;;;;;4971684;28;20045;-78
2022/02/01 07:35:41;;;;;;;37.45;16.48;;;;;;;;;;4971860;28;20031;-78
2022/02/01 07:38:08;;;;;;;23.65;12.38;;;;;;;;;;4976474;28;20077;-78
2022/02/01 07:40:35;;;;;;;27.02;13.10;;;;;;;;;;4974188;28;20112;-78
2022/02/01 07:43:01;;;;;;;25.15;11.93;;;;;;;;;;4973341;28;20035;-78
2022/02/01 07:45:30;;;;;;;22.33;11.25;;;;;;;;;;4970982;28;20067;-78
2022/02/01 07:47:57;;;;;;;20.80;11.20;;;;;;;;;;4967243;28;20481;-77
2022/02/01 07:50:23;;;;;;;29.52;15.45;;;;;;;;;;4974186;28;20114;-78
2022/02/01 07:52:49;;;;;;;39.13;19.05;;;;;;;;;;4980680;28;20157;-78
2022/02/01 07:55:15;;;;;;;39.78;19.52;;;;;;;;;;4981408;28;20130;-78
2022/02/01 07:57:41;;;;;;;29.10;15.90;;;;;;;;;;4972029;28;20828;-78
2022/02/01 08:00:08;;;;;;;30.50;15.20;;;;;;;;;;4983212;28;20027;-78
2022/02/01 08:02:35;;;;;;;31.25;13.50;;;;;;;;;;4983353;28;20037;-78
2022/02/01 08:05:01;;;;;;;27.58;13.40;;;;;;;;;;4978043;28;20646;-78
2022/02/01 08:07:27;;;;;;;34.45;15.63;;;;;;;;;;4983311;28;20037;-78
2022/02/01 08:09:58;;;;;;;29.23;14.63;;;;;;;;;;4975897;28;20037;-78
2022/02/01 08:17:31;;;;;;;32.35;17.27;;;;;;;;;;4974710;28;20042;-78
2022/02/01 08:20:02;;;;;;;39.95;18.60;;;;;;;;;;4980252;28;20033;-79
2022/02/01 08:24:54;;;;;;;33.05;20.25;;;;;;;;;;4988745;28;20117;-78
2022/02/01 08:27:20;;;;;;;32.55;20.60;;;;;;;;;;4974924;28;20545;-78
2022/02/01 08:29:46;;;;;;;39.00;19.30;;;;;;;;;;4974597;28;20046;-78
2022/02/01 08:32:12;;;;;;;30.42;16.60;;;;;;;;;;4973026;28;20052;-79
2022/02/01 08:34:38;;;;;;;35.35;18.02;;;;;;;;;;4966990;28;20038;-79
2022/02/01 08:37:04;;;;;;;31.00;16.13;;;;;;;;;;4972881;28;20034;-78
2022/02/01 08:39:30;;;;;;;32.53;16.67;;;;;;;;;;4979638;28;20030;-78
2022/02/01 08:41:56;;;;;;;31.00;16.95;;;;;;;;;;4973847;28;20105;-78
2022/02/01 08:44:27;;;;;;;34.00;20.65;;;;;;;;;;4972256;28;20863;-78
2022/02/01 08:46:54;;;;;;;45.47;28.80;;;;;;;;;;4981558;28;20031;-78
2022/02/01 08:49:20;;;;;;;44.58;27.52;;;;;;;;;;4982017;28;20047;-78
2022/02/01 08:51:55;;;;;;;37.67;21.65;;;;;;;;;;4979334;28;20046;-79
2022/02/01 08:54:22;;;;;;;34.35;19.63;;;;;;;;;;4982355;28;20043;-78
2022/02/01 08:59:33;;;;;;;33.75;17.60;;;;;;;;;;4976890;28;20053;-79
2022/02/01 09:01:59;;;;;;;37.00;19.67;;;;;;;;;;4992466;28;20499;-78
2022/02/01 09:04:25;;;;;;;33.50;17.77;;;;;;;;;;4994140;28;20030;-78
2022/02/01 09:06:51;;;;;;;34.58;15.40;;;;;;;;;;4984634;28;20035;-78
2022/02/01 09:09:17;;;;;;;28.85;13.52;;;;;;;;;;4980299;28;20034;-78
2022/02/01 09:11:43;;;;;;;29.88;14.35;;;;;;;;;;4985979;28;20026;-79
2022/02/01 09:14:09;;;;;;;28.33;14.57;;;;;;;;;;4988083;28;20041;-78
2022/02/01 09:16:35;;;;;;;24.67;13.13;;;;;;;;;;4989837;28;20039;-78
2022/02/01 09:19:01;;;;;;;23.17;9.43;;;;;;;;;;4978749;28;20031;-78
2022/02/01 09:21:28;;;;;;;25.15;10.93;;;;;;;;;;4996031;28;20077;-78
2022/02/01 09:23:54;;;;;;;19.58;8.15;;;;;;;;;;4980993;28;20781;-78
2022/02/01 09:26:20;;;;;;;16.52;6.70;;;;;;;;;;4986196;28;20030;-78
2022/02/01 09:28:49;;;;;;;13.60;4.60;;;;;;;;;;4984290;28;20030;-78
2022/02/01 09:31:15;;;;;;;11.57;3.50;;;;;;;;;;4992930;28;20082;-78
2022/02/01 09:33:41;;;;;;;11.13;4.70;;;;;;;;;;4983396;28;20077;-78
2022/02/01 09:36:07;;;;;;;12.73;4.72;;;;;;;;;;4976643;28;20046;-78
2022/02/01 09:38:34;;;;;;;17.30;6.65;;;;;;;;;;4987240;28;20046;-78
2022/02/01 09:41:01;;;;;;;18.00;6.47;;;;;;;;;;4984256;28;20027;-78
2022/02/01 09:43:27;;;;;;;20.20;6.28;;;;;;;;;;4967697;28;20061;-78
2022/02/01 09:45:57;;;;;;;13.98;5.93;;;;;;;;;;4993033;28;20109;-78
2022/02/01 09:48:23;;;;;;;20.45;5.57;;;;;;;;;;4990403;28;20625;-78
2022/02/01 09:50:50;;;;;;;14.20;5.15;;;;;;;;;;4988047;28;20042;-78
2022/02/01 09:53:17;;;;;;;14.20;6.18;;;;;;;;;;4991200;28;20424;-78
2022/02/01 09:55:43;;;;;;;12.68;5.20;;;;;;;;;;4979084;28;20038;-78
2022/02/01 09:58:12;;;;;;;12.15;4.90;;;;;;;;;;4987611;28;20071;-78
2022/02/01 10:00:44;;;;;;;14.38;5.50;;;;;;;;;;4990698;28;20081;-78
2022/02/01 10:03:15;;;;;;;14.25;5.35;;;;;;;;;;4990676;28;20891;-79
2022/02/01 10:05:43;;;;;;;11.57;4.43;;;;;;;;;;4961974;28;20034;-78
2022/02/01 10:08:09;;;;;;;13.07;4.30;;;;;;;;;;4990293;28;20034;-78
2022/02/01 10:10:35;;;;;;;11.43;4.68;;;;;;;;;;4982356;28;20044;-78
2022/02/01 10:13:16;;;;;;;9.95;3.92;;;;;;;;;;4991711;28;20401;-78
2022/02/01 10:15:59;;;;;;;12.38;5.18;;;;;;;;;;4987422;28;20033;-78
2022/02/01 10:18:26;;;;;;;13.45;5.80;;;;;;;;;;4977450;28;20622;-79
2022/02/01 10:20:52;;;;;;;12.80;6.80;;;;;;;;;;4981278;28;20109;-78
2022/02/01 10:23:28;;;;;;;15.82;5.57;;;;;;;;;;4983954;28;20055;-79
2022/02/01 10:26:01;;;;;;;13.27;5.00;;;;;;;;;;4983632;28;20034;-78
2022/02/01 10:28:35;;;;;;;16.27;4.32;;;;;;;;;;4987155;28;20588;-78
2022/02/01 10:31:11;;;;;;;16.23;5.63;;;;;;;;;;4981604;28;20506;-78
2022/02/01 10:36:22;;;;;;;12.50;5.50;;;;;;;;;;4977462;28;20105;-78
2022/02/01 10:38:49;;;;;;;14.95;6.05;;;;;;;;;;4975504;28;20473;-78
2022/02/01 10:41:16;;;;;;;11.00;5.07;;;;;;;;;;4992792;28;20069;-78
2022/02/01 10:43:42;;;;;;;14.30;4.82;;;;;;;;;;4975136;28;20371;-78
2022/02/01 10:46:15;;;;;;;12.05;5.18;;;;;;;;;;4957829;28;21072;-78
2022/02/01 10:48:49;;;;;;;11.13;4.13;;;;;;;;;;4983264;28;20106;-79
2022/02/01 10:51:19;;;;;;;17.52;4.53;;;;;;;;;;4975731;28;20048;-79
2022/02/01 10:53:46;;;;;;;13.35;4.40;;;;;;;;;;4983537;28;20078;-78
2022/02/01 10:56:14;;;;;;;12.48;4.30;;;;;;;;;;4984176;28;20038;-78
2022/02/01 10:58:40;;;;;;;15.45;5.50;;;;;;;;;;4976061;28;20046;-78
2022/02/01 11:01:06;;;;;;;12.02;5.70;;;;;;;;;;4988506;28;20109;-78
2022/02/01 11:03:33;;;;;;;13.65;5.80;;;;;;;;;;4985494;28;20106;-78
2022/02/01 11:06:01;;;;;;;18.33;5.38;;;;;;;;;;4981288;28;20058;-78
2022/02/01 11:08:29;;;;;;;11.75;4.32;;;;;;;;;;4989033;28;20038;-78
2022/02/01 11:10:56;;;;;;;9.98;3.83;;;;;;;;;;4980218;28;20043;-78
2022/02/01 11:13:23;;;;;;;9.00;3.15;;;;;;;;;;4976424;28;20418;-79
2022/02/01 11:16:03;;;;;;;11.90;3.63;;;;;;;;;;4965492;28;20602;-78
2022/02/01 11:18:29;;;;;;;14.95;3.53;;;;;;;;;;4981555;28;20034;-79
2022/02/01 11:21:13;;;;;;;11.23;3.60;;;;;;;;;;4981358;28;20074;-79
2022/02/01 11:23:51;;;;;;;13.93;3.65;;;;;;;;;;4980503;28;20027;-78
2022/02/01 11:26:20;;;;;;;10.98;3.85;;;;;;;;;;4984286;28;20053;-79
2022/02/01 11:31:31;;;;;;;10.73;3.25;;;;;;;;;;4980090;28;20585;-79
2022/02/01 11:33:57;;;;;;;7.63;2.90;;;;;;;;;;4989838;28;20394;-79
2022/02/01 11:36:23;;;;;;;13.05;3.67;;;;;;;;;;4975325;28;20030;-78
2022/02/01 11:38:54;;;;;;;11.65;4.07;;;;;;;;;;4984473;28;20658;-78
2022/02/01 11:41:30;;;;;;;12.30;3.30;;;;;;;;;;4988332;28;20069;-78
2022/02/01 11:44:06;;;;;;;13.15;4.65;;;;;;;;;;4972457;28;20117;-78
2022/02/01 11:46:32;;;;;;;10.32;4.00;;;;;;;;;;4983116;28;20053;-79
2022/02/01 11:48:58;;;;;;;10.45;4.22;;;;;;;;;;4981817;28;20389;-78
2022/02/01 11:51:30;;;;;;;11.38;3.97;;;;;;;;;;4979194;28;20061;-78
2022/02/01 11:53:58;;;;;;;14.30;3.63;;;;;;;;;;4975219;28;20364;-79
2022/02/01 11:56:30;;;;;;;10.68;3.30;;;;;;;;;;4975331;28;20061;-79
2022/02/01 11:59:00;;;;;;;12.00;3.58;;;;;;;;;;4981360;28;20049;-79
2022/02/01 12:01:44;;;;;;;12.65;2.70;;;;;;;;;;4986075;28;20417;-79
2022/02/01 12:04:12;;;;;;;8.10;1.77;;;;;;;;;;4986817;28;20089;-79
2022/02/01 12:06:39;;;;;;;9.43;3.10;;;;;;;;;;4988227;28;20041;-79
2022/02/01 12:09:12;;;;;;;7.90;2.20;;;;;;;;;;4987611;28;20046;-78
2022/02/01 12:11:40;;;;;;;7.70;2.42;;;;;;;;;;4981576;28;20703;-79
2022/02/01 12:14:06;;;;;;;5.80;1.75;;;;;;;;;;4988290;28;20030;-78
2022/02/01 12:16:33;;;;;;;6.40;2.15;;;;;;;;;;4981416;28;20035;-79
2022/02/01 12:19:08;;;;;;;13.30;3.10;;;;;;;;;;4979673;28;20035;-78
2022/02/01 12:21:43;;;;;;;11.18;3.72;;;;;;;;;;4978253;28;20031;-79
2022/02/01 12:24:09;;;;;;;13.05;3.35;;;;;;;;;;4980804;28;20382;-78
2022/02/01 12:26:37;;;;;;;12.07;3.22;;;;;;;;;;4974017;28;20042;-79
2022/02/01 12:29:10;;;;;;;13.65;3.05;;;;;;;;;;4961255;28;20127;-79
2022/02/01 12:31:40;;;;;;;13.48;3.35;;;;;;;;;;4981050;28;20030;-79
2022/02/01 12:34:11;;;;;;;8.95;3.13;;;;;;;;;;4973438;28;20081;-78
2022/02/01 12:36:38;;;;;;;10.68;2.72;;;;;;;;;;4982985;28;20757;-78
2022/02/01 12:39:18;;;;;;;9.77;3.17;;;;;;;;;;4985764;28;20757;-79
2022/02/01 12:41:53;;;;;;;8.77;2.80;;;;;;;;;;4978278;28;20039;-79
2022/02/01 12:46:53;;;;;;;12.10;3.13;;;;;;;;;;4974340;28;20031;-79
2022/02/01 12:49:19;;;;;;;10.52;2.58;;;;;;;;;;4957115;28;20068;-78
2022/02/01 12:51:49;;;;;;;9.27;2.45;;;;;;;;;;4973392;28;20474;-78
2022/02/01 12:54:29;;;;;;;9.48;3.13;;;;;;;;;;4980785;28;20425;-78
2022/02/01 12:57:04;;;;;;;9.63;2.97;;;;;;;;;;4973339;28;20034;-79
2022/02/01 12:59:57;;;;;;;10.57;3.30;;;;;;;;;;4987543;28;20445;-79
2022/02/01 13:02:32;;;;;;;9.15;2.90;;;;;;;;;;4977173;28;20038;-79
2022/02/01 13:05:03;;;;;;;12.43;3.60;;;;;;;;;;4969109;28;20077;-79
2022/02/01 13:07:53;;;;;;;11.82;3.17;;;;;;;;;;4981866;28;20103;-79
2022/02/01 13:16:05;;;;;;;13.48;3.67;;;;;;;;;;4978790;28;20624;-79
2022/02/01 13:21:01;;;;;;;11.05;3.35;;;;;;;;;;4984381;28;20039;-79
2022/02/01 13:23:44;;;;;;;12.48;3.40;;;;;;;;;;4982994;28;20019;-78
2022/02/01 13:26:22;;;;;;;12.32;3.28;;;;;;;;;;4971866;28;20077;-78
2022/02/01 13:29:05;;;;;;;9.63;2.92;;;;;;;;;;4963272;28;20038;-78
2022/02/01 13:31:32;;;;;;;10.25;3.65;;;;;;;;;;4985335;28;20085;-78
2022/02/01 13:34:04;;;;;;;15.30;4.00;;;;;;;;;;4975895;28;20105;-78
2022/02/01 13:36:30;;;;;;;9.87;3.53;;;;;;;;;;4956613;28;20068;-79
2022/02/01 13:39:00;;;;;;;6.28;2.03;;;;;;;;;;4981250;28;20078;-78
2022/02/01 13:41:27;;;;;;;10.70;2.67;;;;;;;;;;4982775;28;20689;-78
2022/02/01 13:44:00;;;;;;;7.75;2.00;;;;;;;;;;4986146;28;20776;-78
2022/02/01 13:46:30;;;;;;;8.07;1.98;;;;;;;;;;4982819;28;20037;-78
2022/02/01 13:49:10;;;;;;;9.05;4.18;;;;;;;;;;4981952;28;20478;-79
2022/02/01 13:51:49;;;;;;;11.00;3.17;;;;;;;;;;4983187;28;20026;-79
2022/02/01 13:54:15;;;;;;;5.22;1.83;;;;;;;;;;4978545;28;20041;-78
2022/02/01 13:56:50;;;;;;;6.38;2.13;;;;;;;;;;4980245;28;20026;-78
2022/02/01 13:59:18;;;;;;;9.82;2.63;;;;;;;;;;4973844;28;20035;-81
2022/02/01 14:01:45;;;;;;;9.02;3.40;;;;;;;;;;4958602;28;20087;-78
2022/02/01 14:04:15;;;;;;;20.80;2.75;;;;;;;;;;4969419;28;20037;-78
2022/02/01 14:09:40;;;;;;;12.23;3.03;;;;;;;;;;4990239;28;20133;-79
2022/02/01 14:14:50;;;;;;;10.85;2.53;;;;;;;;;;4981768;28;20803;-79
2022/02/01 14:26:03;;;;;;;15.48;3.13;;;;;;;;;;4975401;28;20058;-79
2022/02/01 14:28:35;;;;;;;10.90;3.60;;;;;;;;;;4980649;28;20655;-78
2022/02/01 14:36:16;;;;;;;7.50;2.75;;;;;;;;;;4979885;28;20081;-78
2022/02/01 14:46:53;;;;;;;13.00;4.05;;;;;;;;;;4978835;28;20038;-78
2022/02/01 14:49:23;;;;;;;12.48;3.63;;;;;;;;;;4961312;28;20035;-79
2022/02/01 14:51:49;;;;;;;11.65;3.25;;;;;;;;;;4987985;28;20149;-79
2022/02/01 14:54:18;;;;;;;8.95;2.40;;;;;;;;;;4988749;28;20038;-79
2022/02/01 14:56:49;;;;;;;10.85;3.72;;;;;;;;;;4989391;28;20128;-79
2022/02/01 15:07:35;;;;;;;16.45;4.95;;;;;;;;;;4977708;28;20045;-78
2022/02/01 15:12:49;;;;;;;10.73;4.00;;;;;;;;;;4981240;28;20222;-79
2022/02/01 15:15:15;;;;;;;13.60;2.88;;;;;;;;;;4987933;28;20061;-79
2022/02/01 15:17:42;;;;;;;15.10;4.07;;;;;;;;;;4986044;28;20049;-79
2022/02/01 15:20:09;;;;;;;11.98;3.58;;;;;;;;;;4974015;28;20070;-79
2022/02/01 15:22:35;;;;;;;10.07;3.45;;;;;;;;;;4984194;28;20034;-77
2022/02/01 15:25:01;;;;;;;11.70;3.13;;;;;;;;;;4979772;28;20131;-79
2022/02/01 15:27:27;;;;;;;13.18;3.10;;;;;;;;;;4973517;28;20044;-79
2022/02/01 15:29:53;;;;;;;5.88;2.22;;;;;;;;;;4964546;28;20034;-78
2022/02/01 15:32:19;;;;;;;9.48;4.13;;;;;;;;;;4972073;28;20061;-79
2022/02/01 15:34:46;;;;;;;9.25;3.15;;;;;;;;;;4970366;28;20034;-78
2022/02/01 15:37:13;;;;;;;13.80;4.75;;;;;;;;;;4984697;28;20478;-78
2022/02/01 15:58:27;;;;;;;22.42;8.20;;;;;;;;;;4979170;28;20053;-78
2022/02/01 16:00:53;;;;;;;10.38;3.28;;;;;;;;;;4968615;28;20049;-78
2022/02/01 16:03:24;;;;;;;16.02;7.90;;;;;;;;;;4986412;28;20085;-79
2022/02/01 16:05:51;;;;;;;11.05;3.47;;;;;;;;;;4984179;28;20481;-79
2022/02/01 16:08:52;;;;;;;10.60;3.95;;;;;;;;;;4972851;28;20109;-79
2022/02/01 16:11:12;;;;;;;12.85;5.28;;;;;;;;;;4975831;28;20038;-78
2022/02/01 16:13:41;;;;;;;16.20;5.75;;;;;;;;;;4968143;28;20035;-78
2022/02/01 16:16:09;;;;;;;17.15;5.25;;;;;;;;;;4986436;28;20696;-78
2022/02/01 16:18:35;;;;;;;16.65;6.28;;;;;;;;;;4990888;28;20045;-78
2022/02/01 16:21:01;;;;;;;19.50;6.93;;;;;;;;;;4990318;28;20038;-79
2022/02/01 16:23:28;;;;;;;17.73;7.50;;;;;;;;;;4990697;28;20030;-79
2022/02/01 16:25:54;;;;;;;13.85;6.28;;;;;;;;;;4971444;28;20034;-78
2022/02/01 16:28:19;;;;;;;13.45;5.90;;;;;;;;;;4978320;28;20046;-78
2022/02/01 16:30:46;;;;;;;13.18;5.75;;;;;;;;;;4976044;28;20114;-79
2022/02/01 16:33:12;;;;;;;8.32;3.55;;;;;;;;;;4971892;28;20809;-79
2022/02/01 16:35:38;;;;;;;12.10;5.25;;;;;;;;;;4977666;28;20073;-79
2022/02/01 16:38:04;;;;;;;11.25;4.72;;;;;;;;;;4971444;28;20161;-79
2022/02/01 16:40:34;;;;;;;11.48;4.15;;;;;;;;;;4972482;28;20031;-79
2022/02/01 16:43:06;;;;;;;12.43;6.28;;;;;;;;;;4987063;28;20084;-78
2022/02/01 16:45:32;;;;;;;11.00;5.60;;;;;;;;;;4961400;28;20027;-78
2022/02/01 16:48:00;;;;;;;6.88;3.13;;;;;;;;;;4985667;28;20042;-79
2022/02/01 16:50:27;;;;;;;16.40;9.52;;;;;;;;;;4989106;28;20598;-79
2022/02/01 16:53:01;;;;;;;11.73;4.00;;;;;;;;;;4981673;28;20050;-79
2022/02/01 16:55:40;;;;;;;10.35;5.57;;;;;;;;;;4982588;28;20026;-78
2022/02/01 16:58:27;;;;;;;15.48;8.27;;;;;;;;;;4968220;28;20054;-79
2022/02/01 17:00:54;;;;;;;6.80;2.50;;;;;;;;;;4980449;28;20070;-78
2022/02/01 17:03:21;;;;;;;8.75;3.78;;;;;;;;;;4971954;28;20041;-78
2022/02/01 17:05:47;;;;;;;7.28;3.00;;;;;;;;;;4971963;28;20076;-78
2022/02/01 17:08:14;;;;;;;11.75;4.15;;;;;;;;;;4969097;28;20976;-78
2022/02/01 17:10:44;;;;;;;11.73;4.68;;;;;;;;;;4971867;28;20038;-78
2022/02/01 17:13:18;;;;;;;21.20;13.93;;;;;;;;;;4967875;28;20069;-79
2022/02/01 17:23:48;;;;;;;28.50;14.18;;;;;;;;;;4980433;28;20077;-79
2022/02/01 17:26:15;;;;;;;18.88;12.38;;;;;;;;;;4980944;28;20030;-79
2022/02/01 17:28:41;;;;;;;17.92;7.82;;;;;;;;;;4969927;28;20049;-79
2022/02/01 17:31:10;;;;;;;18.98;6.05;;;;;;;;;;4984226;28;20397;-79
2022/02/01 17:33:36;;;;;;;19.83;10.32;;;;;;;;;;4976701;28;20042;-79
2022/02/01 17:36:03;;;;;;;12.93;5.88;;;;;;;;;;4965699;28;20030;-79